Knokke-Heist, Belgium
Current Conditions -  °F | °C
As of 4:55 PM on Thursday 27 Nov 2014 (Local Time) from EHFS Reporting Station
Clear Clear  
Wind Chill: 50°   Ceiling: Unl
Heat Index: 50°   Visibility: 5mi
Dew Point: 50°   Wind: 13mph
Humidity: 100%   Direction: 90°E
Pressure: 29.65"   Gusts: NA
Location:  51.35°N, 3.27°E
Report Text: EHFS 271555Z AUTO 09011KT 8000 NSC 10/10 Q1004
Loading
Personal Weather Stations






























Interactive Weather Map New forecast layout! Learn more

10-Day Weather Forecast

Advertisements
Track Severe Weather on mobile